sensor_id;sensor_type;location;lat;lon;timestamp;temperature;humidity
9201;DHT22;4635;48.686;9.008;2022-11-22T00:01:17;4.20;78.70
9201;DHT22;4635;48.686;9.008;2022-11-22T00:03:46;4.30;89.50
9201;DHT22;4635;48.686;9.008;2022-11-22T00:06:14;4.20;34.00
9201;DHT22;4635;48.686;9.008;2022-11-22T00:08:46;4.20;87.20
9201;DHT22;4635;48.686;9.008;2022-11-22T00:11:25;4.20;84.00
9201;DHT22;4635;48.686;9.008;2022-11-22T00:13:54;4.30;83.80
9201;DHT22;4635;48.686;9.008;2022-11-22T00:16:27;4.30;96.40
9201;DHT22;4635;48.686;9.008;2022-11-22T00:19:00;4.30;51.70
9201;DHT22;4635;48.686;9.008;2022-11-22T00:21:30;4.40;20.60
9201;DHT22;4635;48.686;9.008;2022-11-22T00:24:03;4.40;33.90
9201;DHT22;4635;48.686;9.008;2022-11-22T00:26:33;4.40;63.40
9201;DHT22;4635;48.686;9.008;2022-11-22T00:29:02;4.40;54.30
9201;DHT22;4635;48.686;9.008;2022-11-22T00:31:30;4.50;99.30
9201;DHT22;4635;48.686;9.008;2022-11-22T00:33:59;4.50;65.30
9201;DHT22;4635;48.686;9.008;2022-11-22T00:36:27;4.60;94.80
9201;DHT22;4635;48.686;9.008;2022-11-22T00:39:12;4.60;22.10
9201;DHT22;4635;48.686;9.008;2022-11-22T00:41:56;4.70;8.80
9201;DHT22;4635;48.686;9.008;2022-11-22T00:44:24;4.70;14.60
9201;DHT22;4635;48.686;9.008;2022-11-22T00:46:55;4.80;83.00
9201;DHT22;4635;48.686;9.008;2022-11-22T00:49:23;4.70;1.00
9201;DHT22;4635;48.686;9.008;2022-11-22T00:51:54;4.70;15.30
9201;DHT22;4635;48.686;9.008;2022-11-22T00:54:23;4.70;99.90
9201;DHT22;4635;48.686;9.008;2022-11-22T00:56:52;4.80;1.00
9201;DHT22;4635;48.686;9.008;2022-11-22T00:59:22;4.80;6.30
9201;DHT22;4635;48.686;9.008;2022-11-22T01:01:49;4.70;38.10
9201;DHT22;4635;48.686;9.008;2022-11-22T01:04:18;4.60;13.90
9201;DHT22;4635;48.686;9.008;2022-11-22T01:06:47;4.70;99.90
9201;DHT22;4635;48.686;9.008;2022-11-22T01:09:20;4.70;28.40
9201;DHT22;4635;48.686;9.008;2022-11-22T01:11:51;4.50;29.40
9201;DHT22;4635;48.686;9.008;2022-11-22T01:14:23;4.80;12.10
9201;DHT22;4635;48.686;9.008;2022-11-22T01:16:55;4.80;1.00
9201;DHT22;4635;48.686;9.008;2022-11-22T01:19:28;4.80;39.80
9201;DHT22;4635;48.686;9.008;2022-11-22T01:21:58;4.80;29.60
9201;DHT22;4635;48.686;9.008;2022-11-22T01:24:28;4.30;25.90
9201;DHT22;4635;48.686;9.008;2022-11-22T01:26:57;4.80;97.40
9201;DHT22;4635;48.686;9.008;2022-11-22T01:29:30;4.80;90.80
9201;DHT22;4635;48.686;9.008;2022-11-22T01:31:59;4.90;71.50
9201;DHT22;4635;48.686;9.008;2022-11-22T01:34:27;4.90;36.10
9201;DHT22;4635;48.686;9.008;2022-11-22T01:37:05;4.80;18.10
9201;DHT22;4635;48.686;9.008;2022-11-22T01:39:34;4.90;57.50
9201;DHT22;4635;48.686;9.008;2022-11-22T01:42:02;4.90;3.00
9201;DHT22;4635;48.686;9.008;2022-11-22T01:44:34;4.90;41.30
9201;DHT22;4635;48.686;9.008;2022-11-22T01:47:06;4.90;12.70
9201;DHT22;4635;48.686;9.008;2022-11-22T01:49:39;4.90;14.60
9201;DHT22;4635;48.686;9.008;2022-11-22T01:52:14;4.90;32.30
9201;DHT22;4635;48.686;9.008;2022-11-22T01:54:47;4.90;68.20
9201;DHT22;4635;48.686;9.008;2022-11-22T01:57:21;4.90;33.70
9201;DHT22;4635;48.686;9.008;2022-11-22T01:59:54;5.00;96.70
9201;DHT22;4635;48.686;9.008;2022-11-22T02:02:24;5.00;34.40
9201;DHT22;4635;48.686;9.008;2022-11-22T02:04:58;5.00;1.00
9201;DHT22;4635;48.686;9.008;2022-11-22T02:07:35;5.00;1.00
9201;DHT22;4635;48.686;9.008;2022-11-22T02:10:15;5.00;1.00
9201;DHT22;4635;48.686;9.008;2022-11-22T02:12:45;5.10;78.70
9201;DHT22;4635;48.686;9.008;2022-11-22T02:15:24;5.10;23.80
9201;DHT22;4635;48.686;9.008;2022-11-22T02:17:56;5.10;41.50
9201;DHT22;4635;48.686;9.008;2022-11-22T02:20:28;5.10;25.50
9201;DHT22;4635;48.686;9.008;2022-11-22T02:23:02;5.10;16.50
9201;DHT22;4635;48.686;9.008;2022-11-22T02:25:47;5.10;39.60
9201;DHT22;4635;48.686;9.008;2022-11-22T02:28:16;5.10;51.90
9201;DHT22;4635;48.686;9.008;2022-11-22T02:30:48;5.20;34.70
9201;DHT22;4635;48.686;9.008;2022-11-22T02:33:20;5.20;90.10
9201;DHT22;4635;48.686;9.008;2022-11-22T02:35:49;5.20;1.00
9201;DHT22;4635;48.686;9.008;2022-11-22T02:38:21;5.20;28.70
9201;DHT22;4635;48.686;9.008;2022-11-22T02:40:55;5.10;56.10
9201;DHT22;4635;48.686;9.008;2022-11-22T02:43:27;5.10;16.00
9201;DHT22;4635;48.686;9.008;2022-11-22T02:46:03;5.00;56.70
9201;DHT22;4635;48.686;9.008;2022-11-22T02:48:32;5.00;76.60
9201;DHT22;4635;48.686;9.008;2022-11-22T02:51:03;5.00;46.80
9201;DHT22;4635;48.686;9.008;2022-11-22T02:53:35;5.00;1.00
9201;DHT22;4635;48.686;9.008;2022-11-22T02:56:05;4.90;87.10
9201;DHT22;4635;48.686;9.008;2022-11-22T02:58:34;4.90;1.00
9201;DHT22;4635;48.686;9.008;2022-11-22T03:01:03;4.90;1.00
9201;DHT22;4635;48.686;9.008;2022-11-22T03:03:32;4.80;6.30
9201;DHT22;4635;48.686;9.008;2022-11-22T03:06:00;5.00;99.90
9201;DHT22;4635;48.686;9.008;2022-11-22T03:08:29;4.80;99.90
9201;DHT22;4635;48.686;9.008;2022-11-22T03:10:58;4.80;43.80
9201;DHT22;4635;48.686;9.008;2022-11-22T03:13:30;4.80;99.90
9201;DHT22;4635;48.686;9.008;2022-11-22T03:16:00;4.80;99.90
9201;DHT22;4635;48.686;9.008;2022-11-22T03:18:29;4.80;48.90
9201;DHT22;4635;48.686;9.008;2022-11-22T03:21:02;4.80;92.50
9201;DHT22;4635;48.686;9.008;2022-11-22T03:23:31;4.80;7.20
9201;DHT22;4635;48.686;9.008;2022-11-22T03:26:06;4.80;40.20
9201;DHT22;4635;48.686;9.008;2022-11-22T03:28:37;4.80;89.60
9201;DHT22;4635;48.686;9.008;2022-11-22T03:31:06;4.80;5.70
9201;DHT22;4635;48.686;9.008;2022-11-22T03:33:35;4.80;96.40
9201;DHT22;4635;48.686;9.008;2022-11-22T03:36:04;4.80;2.30
9201;DHT22;4635;48.686;9.008;2022-11-22T03:38:33;4.80;99.90
9201;DHT22;4635;48.686;9.008;2022-11-22T03:41:02;4.80;39.50
9201;DHT22;4635;48.686;9.008;2022-11-22T03:43:30;4.80;29.40
9201;DHT22;4635;48.686;9.008;2022-11-22T03:46:00;4.80;41.90
9201;DHT22;4635;48.686;9.008;2022-11-22T03:48:30;4.80;35.50
9201;DHT22;4635;48.686;9.008;2022-11-22T03:51:03;4.80;4.70
9201;DHT22;4635;48.686;9.008;2022-11-22T03:53:32;4.70;99.90
9201;DHT22;4635;48.686;9.008;2022-11-22T03:56:01;4.70;70.80
9201;DHT22;4635;48.686;9.008;2022-11-22T03:58:30;4.70;15.20
9201;DHT22;4635;48.686;9.008;2022-11-22T04:01:00;4.70;54.00
9201;DHT22;4635;48.686;9.008;2022-11-22T04:03:28;4.60;99.90
9201;DHT22;4635;48.686;9.008;2022-11-22T04:05:58;4.60;52.50
9201;DHT22;4635;48.686;9.008;2022-11-22T04:08:27;4.60;99.90
9201;DHT22;4635;48.686;9.008;2022-11-22T04:10:55;4.60;90.00
9201;DHT22;4635;48.686;9.008;2022-11-22T04:13:24;4.60;40.80
9201;DHT22;4635;48.686;9.008;2022-11-22T04:16:15;4.60;22.90
9201;DHT22;4635;48.686;9.008;2022-11-22T04:18:43;4.60;10.60
9201;DHT22;4635;48.686;9.008;2022-11-22T04:21:13;4.50;54.00
9201;DHT22;4635;48.686;9.008;2022-11-22T04:23:59;4.50;16.00
9201;DHT22;4635;48.686;9.008;2022-11-22T04:26:45;4.30;21.50
9201;DHT22;4635;48.686;9.008;2022-11-22T04:29:18;4.40;19.50
9201;DHT22;4635;48.686;9.008;2022-11-22T04:31:52;4.30;81.70
9201;DHT22;4635;48.686;9.008;2022-11-22T04:34:38;4.30;75.50
9201;DHT22;4635;48.686;9.008;2022-11-22T04:37:07;4.20;21.50
9201;DHT22;4635;48.686;9.008;2022-11-22T04:39:37;4.20;82.90
9201;DHT22;4635;48.686;9.008;2022-11-22T04:42:06;4.10;62.10
9201;DHT22;4635;48.686;9.008;2022-11-22T04:44:52;4.10;41.00
9201;DHT22;4635;48.686;9.008;2022-11-22T04:47:24;4.00;81.90
9201;DHT22;4635;48.686;9.008;2022-11-22T04:50:12;4.00;37.50
9201;DHT22;4635;48.686;9.008;2022-11-22T04:52:59;4.00;99.90
9201;DHT22;4635;48.686;9.008;2022-11-22T04:55:28;3.90;22.60
9201;DHT22;4635;48.686;9.008;2022-11-22T04:58:00;3.90;16.60
9201;DHT22;4635;48.686;9.008;2022-11-22T05:00:34;3.90;40.00
9201;DHT22;4635;48.686;9.008;2022-11-22T05:03:07;3.90;69.40
9201;DHT22;4635;48.686;9.008;2022-11-22T05:05:42;3.80;68.40
9201;DHT22;4635;48.686;9.008;2022-11-22T05:08:12;3.80;91.50
9201;DHT22;4635;48.686;9.008;2022-11-22T05:10:41;3.80;99.90
9201;DHT22;4635;48.686;9.008;2022-11-22T05:13:29;3.80;19.30
9201;DHT22;4635;48.686;9.008;2022-11-22T05:16:02;3.80;1.00
9201;DHT22;4635;48.686;9.008;2022-11-22T05:18:36;3.80;96.30
9201;DHT22;4635;48.686;9.008;2022-11-22T05:21:06;3.90;93.30
9201;DHT22;4635;48.686;9.008;2022-11-22T05:23:36;3.90;99.90
9201;DHT22;4635;48.686;9.008;2022-11-22T05:26:23;3.90;99.90
9201;DHT22;4635;48.686;9.008;2022-11-22T05:29:01;3.90;99.90
9201;DHT22;4635;48.686;9.008;2022-11-22T05:31:32;4.00;97.60
9201;DHT22;4635;48.686;9.008;2022-11-22T05:34:05;4.00;99.90
9201;DHT22;4635;48.686;9.008;2022-11-22T05:36:36;4.00;99.90
9201;DHT22;4635;48.686;9.008;2022-11-22T05:39:06;4.00;99.90
9201;DHT22;4635;48.686;9.008;2022-11-22T05:41:34;3.90;99.90
9201;DHT22;4635;48.686;9.008;2022-11-22T05:44:03;3.90;99.90
9201;DHT22;4635;48.686;9.008;2022-11-22T05:46:33;3.90;99.90
9201;DHT22;4635;48.686;9.008;2022-11-22T05:49:03;3.90;99.90
9201;DHT22;4635;48.686;9.008;2022-11-22T05:51:32;3.90;99.90
9201;DHT22;4635;48.686;9.008;2022-11-22T05:54:05;3.90;99.90
9201;DHT22;4635;48.686;9.008;2022-11-22T05:59:27;3.80;1.00
9201;DHT22;4635;48.686;9.008;2022-11-22T06:02:02;3.80;92.30
9201;DHT22;4635;48.686;9.008;2022-11-22T06:04:55;3.80;41.00
9201;DHT22;4635;48.686;9.008;2022-11-22T06:08:00;3.80;99.90
9201;DHT22;4635;48.686;9.008;2022-11-22T06:10:45;3.80;99.90
9201;DHT22;4635;48.686;9.008;2022-11-22T06:13:20;3.80;99.90
9201;DHT22;4635;48.686;9.008;2022-11-22T06:16:21;3.80;1.00
9201;DHT22;4635;48.686;9.008;2022-11-22T06:19:22;3.90;22.10
9201;DHT22;4635;48.686;9.008;2022-11-22T06:33:55;4.00;99.90
9201;DHT22;4635;48.686;9.008;2022-11-22T06:39:39;4.00;1.00
9201;DHT22;4635;48.686;9.008;2022-11-22T06:42:25;4.00;1.00
9201;DHT22;4635;48.686;9.008;2022-11-22T06:45:22;4.00;99.90
9201;DHT22;4635;48.686;9.008;2022-11-22T06:48:13;4.00;27.40
9201;DHT22;4635;48.686;9.008;2022-11-22T06:51:04;4.10;9.00
9201;DHT22;4635;48.686;9.008;2022-11-22T06:54:05;4.10;1.00
9201;DHT22;4635;48.686;9.008;2022-11-22T06:57:01;4.20;6.90
9201;DHT22;4635;48.686;9.008;2022-11-22T07:03:02;4.30;1.00
9201;DHT22;4635;48.686;9.008;2022-11-22T07:12:56;4.50;1.00
9201;DHT22;4635;48.686;9.008;2022-11-22T07:18:58;4.50;1.00
9201;DHT22;4635;48.686;9.008;2022-11-22T07:21:50;4.50;1.00
9201;DHT22;4635;48.686;9.008;2022-11-22T07:24:23;4.60;55.70
9201;DHT22;4635;48.686;9.008;2022-11-22T07:27:10;4.60;1.00
9201;DHT22;4635;48.686;9.008;2022-11-22T07:29:54;4.70;1.00
9201;DHT22;4635;48.686;9.008;2022-11-22T07:32:56;4.70;1.00
9201;DHT22;4635;48.686;9.008;2022-11-22T07:35:31;4.80;1.00
9201;DHT22;4635;48.686;9.008;2022-11-22T07:38:07;4.30;1.00
9201;DHT22;4635;48.686;9.008;2022-11-22T07:40:46;4.60;1.00
9201;DHT22;4635;48.686;9.008;2022-11-22T07:43:31;4.90;1.00
9201;DHT22;4635;48.686;9.008;2022-11-22T07:46:04;5.00;1.00
9201;DHT22;4635;48.686;9.008;2022-11-22T07:48:38;4.90;1.00
9201;DHT22;4635;48.686;9.008;2022-11-22T07:51:17;5.10;1.00
9201;DHT22;4635;48.686;9.008;2022-11-22T07:53:48;5.10;1.00
9201;DHT22;4635;48.686;9.008;2022-11-22T07:56:33;5.10;1.00
9201;DHT22;4635;48.686;9.008;2022-11-22T07:59:12;5.10;1.00
9201;DHT22;4635;48.686;9.008;2022-11-22T08:01:47;5.10;1.00
9201;DHT22;4635;48.686;9.008;2022-11-22T08:04:25;5.10;1.00
9201;DHT22;4635;48.686;9.008;2022-11-22T08:07:01;5.10;1.00
9201;DHT22;4635;48.686;9.008;2022-11-22T08:09:40;4.50;1.00
9201;DHT22;4635;48.686;9.008;2022-11-22T08:12:18;5.10;1.00
9201;DHT22;4635;48.686;9.008;2022-11-22T08:14:54;5.10;1.00
9201;DHT22;4635;48.686;9.008;2022-11-22T08:17:28;5.10;1.00
9201;DHT22;4635;48.686;9.008;2022-11-22T08:20:08;5.10;1.00
9201;DHT22;4635;48.686;9.008;2022-11-22T08:22:49;5.20;1.00
9201;DHT22;4635;48.686;9.008;2022-11-22T08:25:34;5.20;1.00
9201;DHT22;4635;48.686;9.008;2022-11-22T08:28:29;5.20;1.00
9201;DHT22;4635;48.686;9.008;2022-11-22T08:31:41;5.20;1.00
9201;DHT22;4635;48.686;9.008;2022-11-22T08:54:54;5.60;1.00
9201;DHT22;4635;48.686;9.008;2022-11-22T10:22:32;6.50;1.00
9201;DHT22;4635;48.686;9.008;2022-11-22T10:25:26;6.60;99.90
9201;DHT22;4635;48.686;9.008;2022-11-22T10:28:22;6.40;1.00
9201;DHT22;4635;48.686;9.008;2022-11-22T10:31:05;6.60;99.90
9201;DHT22;4635;48.686;9.008;2022-11-22T10:33:59;6.60;99.90
9201;DHT22;4635;48.686;9.008;2022-11-22T10:37:01;6.60;1.00
9201;DHT22;4635;48.686;9.008;2022-11-22T10:40:16;6.70;99.90
9201;DHT22;4635;48.686;9.008;2022-11-22T10:43:21;6.60;1.00
9201;DHT22;4635;48.686;9.008;2022-11-22T10:46:11;6.60;1.00
9201;DHT22;4635;48.686;9.008;2022-11-22T10:48:55;6.60;99.90
9201;DHT22;4635;48.686;9.008;2022-11-22T10:51:48;6.80;1.00
9201;DHT22;4635;48.686;9.008;2022-11-22T10:54:37;6.90;1.00
9201;DHT22;4635;48.686;9.008;2022-11-22T10:57:36;6.90;1.00
9201;DHT22;4635;48.686;9.008;2022-11-22T11:00:23;6.90;1.00
9201;DHT22;4635;48.686;9.008;2022-11-22T11:03:23;6.80;1.00
9201;DHT22;4635;48.686;9.008;2022-11-22T11:06:05;6.90;99.90
9201;DHT22;4635;48.686;9.008;2022-11-22T11:08:46;6.80;1.00
9201;DHT22;4635;48.686;9.008;2022-11-22T11:11:33;6.80;1.00
9201;DHT22;4635;48.686;9.008;2022-11-22T11:14:30;6.80;1.00
9201;DHT22;4635;48.686;9.008;2022-11-22T11:17:09;6.80;1.00
9201;DHT22;4635;48.686;9.008;2022-11-22T11:26:24;6.80;1.00
9201;DHT22;4635;48.686;9.008;2022-11-22T11:46:20;7.00;99.90
9201;DHT22;4635;48.686;9.008;2022-11-22T11:52:24;7.20;99.90
9201;DHT22;4635;48.686;9.008;2022-11-22T11:58:11;7.40;1.00
9201;DHT22;4635;48.686;9.008;2022-11-22T12:17:20;7.40;99.90
9201;DHT22;4635;48.686;9.008;2022-11-22T12:20:16;7.40;1.00
9201;DHT22;4635;48.686;9.008;2022-11-22T12:23:39;7.40;1.00
9201;DHT22;4635;48.686;9.008;2022-11-22T12:26:26;7.50;99.90
9201;DHT22;4635;48.686;9.008;2022-11-22T12:43:23;7.60;1.00
9201;DHT22;4635;48.686;9.008;2022-11-22T12:46:23;7.40;1.00
9201;DHT22;4635;48.686;9.008;2022-11-22T12:49:35;7.40;1.00
9201;DHT22;4635;48.686;9.008;2022-11-22T12:52:51;7.40;99.90
9201;DHT22;4635;48.686;9.008;2022-11-22T12:56:03;7.40;99.90
9201;DHT22;4635;48.686;9.008;2022-11-22T12:59:11;7.30;1.00
9201;DHT22;4635;48.686;9.008;2022-11-22T13:02:09;7.50;99.90
9201;DHT22;4635;48.686;9.008;2022-11-22T13:05:17;7.50;1.00
9201;DHT22;4635;48.686;9.008;2022-11-22T13:11:28;7.70;99.90
9201;DHT22;4635;48.686;9.008;2022-11-22T13:49:17;7.10;88.60
9201;DHT22;4635;48.686;9.008;2022-11-22T13:52:28;7.20;91.00
9201;DHT22;4635;48.686;9.008;2022-11-22T13:55:28;7.10;90.10
9201;DHT22;4635;48.686;9.008;2022-11-22T14:04:54;6.90;95.50
9201;DHT22;4635;48.686;9.008;2022-11-22T14:07:34;6.90;95.90
9201;DHT22;4635;48.686;9.008;2022-11-22T14:10:33;6.90;96.80
9201;DHT22;4635;48.686;9.008;2022-11-22T14:13:28;6.90;97.70
9201;DHT22;4635;48.686;9.008;2022-11-22T14:16:27;6.90;98.50
9201;DHT22;4635;48.686;9.008;2022-11-22T14:19:22;6.90;99.90
9201;DHT22;4635;48.686;9.008;2022-11-22T14:22:21;6.80;99.70
9201;DHT22;4635;48.686;9.008;2022-11-22T14:32:19;6.40;99.90
9201;DHT22;4635;48.686;9.008;2022-11-22T15:11:43;6.40;99.90
9201;DHT22;4635;48.686;9.008;2022-11-22T15:15:13;6.40;99.90
9201;DHT22;4635;48.686;9.008;2022-11-22T15:21:31;6.30;99.90
9201;DHT22;4635;48.686;9.008;2022-11-22T15:27:44;6.20;99.90
9201;DHT22;4635;48.686;9.008;2022-11-22T15:30:36;6.20;99.90
9201;DHT22;4635;48.686;9.008;2022-11-22T15:33:30;6.20;99.90
9201;DHT22;4635;48.686;9.008;2022-11-22T15:39:28;6.30;99.90
9201;DHT22;4635;48.686;9.008;2022-11-22T15:42:14;6.20;99.90
9201;DHT22;4635;48.686;9.008;2022-11-22T15:44:51;6.20;99.90
9201;DHT22;4635;48.686;9.008;2022-11-22T15:47:39;6.30;99.90
9201;DHT22;4635;48.686;9.008;2022-11-22T15:50:28;6.30;99.90
9201;DHT22;4635;48.686;9.008;2022-11-22T15:53:42;6.30;99.90
9201;DHT22;4635;48.686;9.008;2022-11-22T15:56:46;6.20;99.90
9201;DHT22;4635;48.686;9.008;2022-11-22T15:59:44;6.20;99.90
9201;DHT22;4635;48.686;9.008;2022-11-22T16:02:46;6.20;99.90
9201;DHT22;4635;48.686;9.008;2022-11-22T16:05:36;6.20;99.90
9201;DHT22;4635;48.686;9.008;2022-11-22T16:11:05;6.10;99.90
9201;DHT22;4635;48.686;9.008;2022-11-22T16:14:00;6.10;99.90
9201;DHT22;4635;48.686;9.008;2022-11-22T16:20:56;6.10;99.90
9201;DHT22;4635;48.686;9.008;2022-11-22T16:24:33;6.10;99.90
9201;DHT22;4635;48.686;9.008;2022-11-22T16:28:14;6.20;99.90
9201;DHT22;4635;48.686;9.008;2022-11-22T16:31:21;6.30;99.90
9201;DHT22;4635;48.686;9.008;2022-11-22T16:44:28;6.20;99.90
9201;DHT22;4635;48.686;9.008;2022-11-22T16:47:22;6.10;99.90
9201;DHT22;4635;48.686;9.008;2022-11-22T16:50:18;6.10;99.90
9201;DHT22;4635;48.686;9.008;2022-11-22T16:53:06;6.00;99.90
9201;DHT22;4635;48.686;9.008;2022-11-22T16:55:41;6.00;99.90
9201;DHT22;4635;48.686;9.008;2022-11-22T16:58:28;5.90;99.90
